Time;durP1;ratioP1;P1;durP2;ratioP2;P2;SDS_P1;SDS_P2;PMS_P1;PMS_P2;Temp;Humidity;BMP_temperature;BMP_pressure;BME280_temperature;BME280_humidity;BME280_pressure;Samples;Min_cycle;Max_cycle;Signal;HPM_P1;HPM_P2
2021/07/21 00:01:17;;;;;;;;;;;16.80;99.90;;;15.50;76.45;96046.00;10257216;29;2269;-83
2021/07/21 00:06:20;;;;;;;;;;;16.70;99.90;;;15.42;77.68;96050.22;10256682;28;2340;-83
2021/07/21 00:21:53;;;;;;;;;;;16.40;99.90;;;15.21;79.82;96043.53;10252989;28;2021;-83
2021/07/21 00:26:56;;;;;;;;;;;16.40;99.90;;;15.10;81.17;96048.31;10254346;29;2290;-84
2021/07/21 00:31:59;;;;;;;;;;;16.20;99.90;;;15.00;81.53;96046.56;10266458;28;2299;-83
2021/07/21 00:37:01;;;;;;;;;;;16.20;99.90;;;15.00;82.75;96043.03;10249689;29;2011;-83
2021/07/21 00:42:04;;;;;;;;;;;16.10;99.90;;;14.94;83.21;96036.91;10245040;29;2260;-84
2021/07/21 00:47:07;;;;;;;;;;;16.10;99.90;;;14.91;84.32;96034.00;10265790;28;2307;-83
2021/07/21 00:52:09;;;;;;;;;;;16.00;99.90;;;14.88;85.42;96040.78;10248245;28;2775;-83
2021/07/21 00:57:13;;;;;;;;;;;16.00;99.90;;;14.82;85.29;96052.78;10254213;29;2320;-83
2021/07/21 01:02:16;;;;;;;;;;;16.00;99.90;;;14.76;85.51;96049.38;10245774;28;2378;-81
2021/07/21 01:07:20;;;;;;;;;;;15.90;99.90;;;14.67;86.72;96047.59;10261043;29;2559;-83
2021/07/21 01:12:23;;;;;;;;;;;15.80;99.90;;;14.62;87.06;96047.69;10261761;28;2236;-82
2021/07/21 01:17:26;;;;;;;;;;;15.80;99.90;;;14.58;87.42;96045.56;10267601;28;2483;-83
2021/07/21 01:22:29;;;;;;;;;;;15.70;99.90;;;14.54;87.73;96051.84;10268456;28;2329;-83
2021/07/21 01:27:32;;;;;;;;;;;15.70;99.90;;;14.44;88.33;96054.66;10278673;29;2294;-81
2021/07/21 01:32:34;;;;;;;;;;;15.60;99.90;;;14.36;88.67;96049.91;10291947;28;2133;-83
2021/07/21 01:37:37;;;;;;;;;;;15.50;99.90;;;14.26;89.90;96037.31;10284682;28;2482;-83
2021/07/21 01:42:40;;;;;;;;;;;15.40;99.90;;;14.25;89.76;96041.94;10264054;28;2560;-83
2021/07/21 01:47:43;;;;;;;;;;;15.40;99.90;;;14.17;90.20;96042.56;10270511;28;2572;-83
2021/07/21 01:52:48;;;;;;;;;;;15.30;99.90;;;14.12;90.74;96039.09;10250460;28;1990;-82
2021/07/21 01:57:51;;;;;;;;;;;15.30;99.90;;;14.04;90.92;96046.75;10249909;29;1943;-83
2021/07/21 02:02:54;;;;;;;;;;;15.30;99.90;;;13.96;92.38;96042.00;10262744;28;1967;-83
2021/07/21 02:07:57;;;;;;;;;;;15.20;99.90;;;13.96;92.09;96041.19;10264950;29;2876;-83
2021/07/21 02:13:00;;;;;;;;;;;15.10;99.90;;;13.93;92.14;96037.19;10271061;28;2447;-83
2021/07/21 02:18:03;;;;;;;;;;;15.10;99.90;;;13.86;93.12;96031.31;10264801;29;2497;-83
2021/07/21 02:23:05;;;;;;;;;;;15.00;99.90;;;13.82;93.17;96034.88;10250658;28;2526;-82
2021/07/21 02:28:08;;;;;;;;;;;14.90;99.90;;;13.84;93.56;96028.09;10262710;28;2156;-82
2021/07/21 02:33:12;;;;;;;;;;;14.90;99.90;;;13.80;93.69;96037.84;10253658;28;2493;-83
2021/07/21 02:38:15;;;;;;;;;;;14.90;99.90;;;13.73;93.46;96032.78;10255041;29;2781;-83
2021/07/21 02:43:17;;;;;;;;;;;14.90;99.90;;;13.71;93.53;96034.19;10264032;28;2604;-82
2021/07/21 02:48:20;;;;;;;;;;;14.80;99.90;;;13.60;94.15;96030.78;10258148;29;2474;-82
2021/07/21 02:53:23;;;;;;;;;;;14.80;99.90;;;13.67;95.14;96033.13;10248946;28;2460;-84
2021/07/21 02:58:26;;;;;;;;;;;14.70;99.90;;;13.68;93.97;96035.56;10265250;28;1999;-84
2021/07/21 03:03:28;;;;;;;;;;;14.80;99.90;;;13.58;94.13;96034.88;10266749;28;2445;-84
2021/07/21 03:08:31;;;;;;;;;;;14.70;99.90;;;13.55;93.03;96040.81;10256441;28;2461;-84
2021/07/21 03:13:34;;;;;;;;;;;14.70;99.90;;;13.49;93.76;96043.59;10246731;28;2512;-84
2021/07/21 03:18:37;;;;;;;;;;;14.60;99.90;;;13.55;93.41;96041.66;10264342;29;2665;-83
2021/07/21 03:23:39;;;;;;;;;;;14.70;99.90;;;13.58;93.33;96048.38;10269229;28;2568;-84
2021/07/21 03:28:43;;;;;;;;;;;14.70;99.90;;;13.62;95.17;96054.81;10270656;28;2522;-83
2021/07/21 03:33:46;;;;;;;;;;;14.70;99.90;;;13.61;95.81;96058.59;10248372;28;2463;-82
2021/07/21 03:38:49;;;;;;;;;;;14.70;99.90;;;13.63;94.99;96051.81;10261124;29;2540;-82
2021/07/21 03:43:52;;;;;;;;;;;14.70;99.90;;;13.60;95.85;96065.88;10245281;28;2577;-83
2021/07/21 03:48:55;;;;;;;;;;;14.70;99.90;;;13.56;95.55;96069.47;10251356;29;2461;-82
2021/07/21 03:53:57;;;;;;;;;;;14.70;99.90;;;13.64;96.28;96068.84;10272556;28;2486;-83
2021/07/21 03:59:01;;;;;;;;;;;14.60;99.90;;;13.77;96.30;96073.56;10282999;29;2141;-83
2021/07/21 04:04:04;;;;;;;;;;;14.70;99.90;;;13.90;95.23;96069.38;10276146;28;2484;-83
2021/07/21 04:09:06;;;;;;;;;;;14.80;99.90;;;14.12;94.84;96079.66;10241960;29;2615;-80
2021/07/21 04:14:09;;;;;;;;;;;14.80;99.90;;;14.39;93.08;96071.75;10242010;28;2972;-83
2021/07/21 04:19:32;;;;;;;;;;;15.00;99.90;;;14.74;90.66;96066.97;10254858;29;2561;-83
2021/07/21 04:24:34;;;;;;;;;;;15.40;99.90;;;14.95;88.86;96073.72;10261520;28;2478;-83
2021/07/21 04:29:37;;;;;;;;;;;15.70;99.90;;;15.17;87.68;96080.44;10268957;29;2137;-83
2021/07/21 04:34:40;;;;;;;;;;;15.90;99.90;;;15.38;86.08;96081.69;10267764;28;2507;-84
2021/07/21 04:39:43;;;;;;;;;;;16.10;99.90;;;15.71;84.61;96082.50;10281798;28;2543;-84
2021/07/21 04:44:45;;;;;;;;;;;16.30;99.90;;;15.97;82.85;96082.88;10291484;28;2101;-84
2021/07/21 04:49:48;;;;;;;;;;;16.60;99.90;;;16.10;82.04;96087.50;10282667;29;1974;-84
2021/07/21 04:54:51;;;;;;;;;;;16.80;99.90;;;16.24;81.32;96087.47;10255059;28;2561;-83
2021/07/21 04:59:54;;;;;;;;;;;17.00;99.90;;;16.33;80.28;96090.28;10269694;28;2492;-84
2021/07/21 05:04:56;;;;;;;;;;;17.20;99.90;;;16.69;76.32;96091.16;10256876;28;2472;-83
2021/07/21 05:09:59;;;;;;;;;;;17.40;99.90;;;16.88;75.67;96093.75;10263579;29;2524;-83
2021/07/21 05:15:02;;;;;;;;;;;17.50;99.90;;;17.18;74.82;96105.84;10278970;28;2446;-83
2021/07/21 05:20:05;;;;;;;;;;;17.70;99.90;;;17.18;74.36;96105.84;10269473;28;1955;-82
2021/07/21 05:25:08;;;;;;;;;;;17.90;99.90;;;17.48;73.33;96108.94;10278869;28;2521;-83
2021/07/21 05:30:11;;;;;;;;;;;18.10;99.90;;;17.61;73.09;96102.63;10269463;28;1903;-85
2021/07/21 05:35:14;;;;;;;;;;;18.30;99.90;;;17.77;71.60;96112.03;10267356;28;2474;-84
2021/07/21 05:40:16;;;;;;;;;;;18.50;99.90;;;17.98;71.03;96112.31;10246112;29;2170;-83
2021/07/21 05:45:19;;;;;;;;;;;18.60;99.90;;;18.29;69.21;96115.00;10252166;28;2375;-82
2021/07/21 05:50:22;;;;;;;;;;;18.80;99.90;;;18.62;67.70;96117.34;10253544;29;2514;-83
2021/07/21 05:55:25;;;;;;;;;;;19.10;99.90;;;19.04;67.39;96115.06;10241155;29;2469;-83
2021/07/21 06:00:27;;;;;;;;;;;19.40;99.90;;;19.41;65.04;96128.06;10257464;28;2517;-81
2021/07/21 06:05:30;;;;;;;;;;;19.70;99.90;;;19.21;66.48;96122.44;10265926;28;2564;-84
2021/07/21 06:10:33;;;;;;;;;;;19.90;99.90;;;19.39;65.45;96134.94;10260584;29;2442;-82
2021/07/21 06:15:36;;;;;;;;;;;20.00;99.90;;;19.96;62.55;96137.47;10275915;28;2590;-84
2021/07/21 06:20:39;;;;;;;;;;;20.30;99.90;;;20.28;62.05;96149.72;10273600;28;2597;-81
2021/07/21 06:25:42;;;;;;;;;;;20.60;99.90;;;19.98;61.51;96144.22;10256213;29;2447;-83
2021/07/21 06:30:44;;;;;;;;;;;20.60;99.90;;;20.19;60.91;96151.72;10266411;29;2548;-82
2021/07/21 06:35:47;;;;;;;;;;;20.80;99.90;;;20.15;60.99;96153.47;10263102;28;2708;-83
2021/07/21 06:40:50;;;;;;;;;;;20.90;99.90;;;20.55;59.00;96156.75;10254554;29;2698;-81
2021/07/21 06:45:53;;;;;;;;;;;21.00;99.90;;;20.81;59.29;96159.34;10273567;28;2434;-83
2021/07/21 06:50:56;;;;;;;;;;;21.30;99.90;;;21.01;58.36;96163.25;10293644;28;2351;-81
2021/07/21 06:55:58;;;;;;;;;;;21.60;99.90;;;21.70;56.82;96157.31;10293759;28;2545;-83
2021/07/21 07:01:01;;;;;;;;;;;22.00;99.90;;;21.39;56.02;96160.47;10271141;28;1900;-83
2021/07/21 07:06:04;;;;;;;;;;;22.10;99.90;;;21.43;54.90;96164.09;10259237;28;3181;-81
2021/07/21 07:11:07;;;;;;;;;;;22.10;99.90;;;21.64;55.16;96171.53;10262676;28;2541;-83
2021/07/21 07:16:10;;;;;;;;;;;22.40;99.90;;;22.20;53.45;96170.03;10263538;28;2132;-83
2021/07/21 07:21:12;;;;;;;;;;;22.70;99.90;;;21.89;53.25;96175.97;10248418;29;2490;-84
2021/07/21 07:26:16;;;;;;;;;;;22.80;99.90;;;21.95;50.69;96174.63;10261721;28;2562;-84
2021/07/21 07:31:19;;;;;;;;;;;22.80;99.90;;;22.46;51.16;96167.03;10246053;29;2475;-82
2021/07/21 07:36:22;;;;;;;;;;;23.00;99.90;;;21.64;50.78;96175.06;10259722;28;1948;-83
2021/07/21 07:41:24;;;;;;;;;;;22.80;99.90;;;21.97;49.42;96172.34;10267256;29;2492;-83
2021/07/21 07:46:27;;;;;;;;;;;22.80;99.90;;;22.28;51.09;96171.09;10266208;28;2560;-83
2021/07/21 07:51:30;;;;;;;;;;;22.90;99.90;;;22.08;48.85;96170.78;10266125;29;2596;-83
2021/07/21 07:56:33;;;;;;;;;;;23.00;99.90;;;21.81;50.61;96165.88;10274936;28;2605;-81
2021/07/21 08:01:36;;;;;;;;;;;22.90;99.90;;;22.06;47.79;96167.56;10268660;29;2568;-84
2021/07/21 08:06:39;;;;;;;;;;;23.00;99.90;;;22.69;47.80;96158.34;10295900;28;2913;-83
2021/07/21 08:11:42;;;;;;;;;;;23.30;99.90;;;22.61;48.41;96157.34;10287993;28;1905;-84
2021/07/21 08:16:44;;;;;;;;;;;23.50;99.90;;;22.62;49.12;96164.41;10276164;28;2376;-84
2021/07/21 08:21:47;;;;;;;;;;;23.40;99.90;;;22.60;47.46;96161.22;10290423;28;1285;-83
2021/07/21 08:26:50;;;;;;;;;;;23.50;99.90;;;22.58;47.71;96164.28;10287622;29;2559;-84
2021/07/21 08:32:10;;;;;;;;;;;23.50;99.90;;;22.28;46.44;96165.63;10291833;28;2616;-84
2021/07/21 08:37:14;;;;;;;;;;;23.40;99.90;;;22.77;46.28;96166.44;10294265;28;2208;-84
2021/07/21 08:42:17;;;;;;;;;;;23.60;99.90;;;22.89;44.63;96169.22;10293393;28;1847;-85
2021/07/21 08:47:19;;;;;;;;;;;23.70;99.90;;;22.55;45.75;96170.44;10290030;28;2320;-84
2021/07/21 08:52:22;;;;;;;;;;;23.30;99.90;;;22.83;44.21;96180.72;10299019;28;2059;-83
2021/07/21 08:57:25;;;;;;;;;;;23.60;99.90;;;22.81;43.63;96170.13;10291830;28;1962;-84
2021/07/21 09:02:28;;;;;;;;;;;23.80;99.90;;;22.87;44.00;96176.22;10279899;28;2129;-83
2021/07/21 09:07:31;;;;;;;;;;;23.70;99.90;;;22.70;42.65;96176.38;10286942;28;2038;-84
2021/07/21 09:12:39;;;;;;;;;;;23.80;99.90;;;23.57;43.00;96176.00;10292596;28;1230;-84
2021/07/21 09:17:41;;;;;;;;;;;23.90;99.90;;;23.20;42.51;96176.84;10290966;28;1891;-82
2021/07/21 09:22:44;;;;;;;;;;;24.00;99.90;;;23.86;42.82;96170.22;10294182;28;1344;-82
2021/07/21 09:27:47;;;;;;;;;;;24.30;99.90;;;24.22;42.13;96171.97;10297105;28;1872;-86
2021/07/21 09:32:49;;;;;;;;;;;24.80;99.90;;;24.17;42.44;96166.72;10292287;28;1877;-84
2021/07/21 09:37:52;;;;;;;;;;;25.10;99.90;;;23.24;43.35;96167.97;10285298;28;1914;-84
2021/07/21 09:42:55;;;;;;;;;;;24.70;99.90;;;23.20;44.30;96170.56;10288353;28;2098;-83
2021/07/21 09:47:59;;;;;;;;;;;24.40;99.90;;;24.03;43.63;96165.56;10292247;28;2094;-83
2021/07/21 09:53:04;;;;;;;;;;;24.60;99.90;;;23.49;42.44;96165.97;10285476;28;2003;-84
2021/07/21 09:58:07;;;;;;;;;;;24.60;99.90;;;23.60;42.00;96164.31;10273287;29;2322;-80
2021/07/21 10:03:09;;;;;;;;;;;24.50;99.90;;;23.40;42.74;96168.81;10276716;28;3145;-84
2021/07/21 10:08:12;;;;;;;;;;;24.60;99.90;;;23.92;42.03;96148.78;10280169;28;1899;-83
2021/07/21 10:13:15;;;;;;;;;;;24.60;99.90;;;23.90;42.50;96154.63;10285491;28;2197;-81
2021/07/21 10:18:18;;;;;;;;;;;24.80;99.90;;;24.20;42.49;96168.00;10286466;28;2345;-84
2021/07/21 10:23:23;;;;;;;;;;;25.00;99.90;;;23.98;42.90;96152.88;10282500;28;2300;-84
2021/07/21 10:28:25;;;;;;;;;;;25.00;99.90;;;23.94;43.58;96152.00;10264128;29;2357;-83
2021/07/21 10:33:28;;;;;;;;;;;24.90;99.90;;;23.94;42.71;96149.25;10293021;28;2522;-83
2021/07/21 10:38:31;;;;;;;;;;;25.00;99.90;;;23.40;43.40;96141.41;10298304;28;2019;-83
2021/07/21 10:43:34;;;;;;;;;;;24.80;99.90;;;23.86;42.34;96144.72;10273565;28;1935;-83
2021/07/21 10:48:37;;;;;;;;;;;24.80;99.90;;;24.30;41.78;96140.00;10264675;29;2368;-83
2021/07/21 10:53:55;;;;;;;;;;;25.10;99.90;;;25.54;39.98;96138.66;10256847;28;1930;-84
2021/07/21 10:59:14;;;;;;;;;;;26.70;99.90;;;25.69;38.79;96128.72;10262988;29;2337;-85
2021/07/21 11:04:17;;;;;;;;;;;27.60;98.00;;;25.34;38.70;96149.63;10275101;28;3122;-81
2021/07/21 11:09:19;;;;;;;;;;;27.70;95.70;;;26.62;37.48;96128.53;10288345;28;2241;-84
2021/07/21 11:14:23;;;;;;;;;;;28.40;95.10;;;26.73;35.24;96125.97;10272168;28;2352;-85
2021/07/21 11:19:25;;;;;;;;;;;28.80;91.20;;;26.99;36.52;96119.66;10301026;28;1521;-82
2021/07/21 11:24:28;;;;;;;;;;;29.20;91.30;;;26.75;36.45;96124.41;10301380;28;2264;-83
2021/07/21 11:29:33;;;;;;;;;;;29.30;88.80;;;26.23;37.24;96125.88;10291502;28;2275;-83
2021/07/21 11:34:36;;;;;;;;;;;29.10;88.30;;;25.77;38.95;96125.78;10301779;28;1894;-83
2021/07/21 11:39:40;;;;;;;;;;;28.40;88.60;;;25.94;37.54;96120.97;10296111;29;2243;-83
2021/07/21 11:44:42;;;;;;;;;;;27.80;88.30;;;25.34;39.32;96119.38;10300042;28;1815;-82
2021/07/21 11:49:45;;;;;;;;;;;27.20;89.60;;;25.99;38.06;96127.00;10281022;28;2206;-85
2021/07/21 11:54:48;;;;;;;;;;;26.90;89.90;;;24.80;39.74;96122.81;10279484;28;2154;-83
2021/07/21 11:59:51;;;;;;;;;;;26.40;89.90;;;24.38;40.25;96117.09;10290142;28;2307;-82
2021/07/21 12:04:54;;;;;;;;;;;25.80;90.30;;;23.92;41.90;96115.84;10293951;28;2246;-83
2021/07/21 12:09:56;;;;;;;;;;;25.20;92.20;;;25.15;39.90;96111.09;10284098;29;2177;-84
2021/07/21 12:15:00;;;;;;;;;;;25.70;93.10;;;24.30;40.65;96118.00;10286675;28;2221;-84
2021/07/21 12:20:03;;;;;;;;;;;25.70;90.80;;;24.25;41.11;96118.31;10286057;28;1228;-83
2021/07/21 12:25:06;;;;;;;;;;;25.30;92.20;;;24.69;40.05;96110.78;10296048;28;1970;-83
2021/07/21 12:30:09;;;;;;;;;;;25.60;91.70;;;25.22;39.61;96100.22;10292476;29;2382;-85
2021/07/21 12:35:11;;;;;;;;;;;25.90;91.30;;;25.50;38.29;96101.97;10296436;28;1895;-85
2021/07/21 12:40:14;;;;;;;;;;;26.30;90.40;;;25.68;39.34;96108.66;10291521;28;1634;-83
2021/07/21 12:45:17;;;;;;;;;;;26.50;90.80;;;25.37;38.66;96106.03;10282915;28;1671;-83
2021/07/21 12:50:20;;;;;;;;;;;26.60;89.10;;;25.57;38.56;96100.16;10307798;28;2338;-83
2021/07/21 12:55:22;;;;;;;;;;;26.40;89.40;;;25.71;37.47;96098.88;10279291;28;2331;-84
2021/07/21 13:00:25;;;;;;;;;;;26.80;87.50;;;25.51;37.93;96100.81;10266444;29;2252;-82
2021/07/21 13:05:28;;;;;;;;;;;26.80;87.10;;;25.80;36.92;96089.25;10261855;28;1943;-83
2021/07/21 13:10:31;;;;;;;;;;;26.80;86.20;;;25.87;35.87;96092.13;10261591;29;2263;-83
2021/07/21 13:15:33;;;;;;;;;;;26.80;84.80;;;26.11;35.47;96091.00;10257395;28;2423;-83
2021/07/21 13:20:41;;;;;;;;;;;27.00;84.70;;;26.82;36.08;96074.09;10258988;29;2295;-83
2021/07/21 13:25:43;;;;;;;;;;;27.30;85.80;;;26.80;35.03;96085.50;10246149;28;2343;-83
2021/07/21 13:30:46;;;;;;;;;;;27.90;83.40;;;26.47;35.97;96079.84;10265103;29;2485;-83
2021/07/21 13:35:49;;;;;;;;;;;27.60;83.70;;;26.02;35.20;96086.88;10255879;29;2326;-83
2021/07/21 13:40:52;;;;;;;;;;;27.30;82.90;;;26.01;35.19;96090.81;10266571;28;2347;-82
2021/07/21 13:45:56;;;;;;;;;;;27.00;82.90;;;26.08;34.95;96086.25;10264739;28;2268;-83
2021/07/21 13:50:59;;;;;;;;;;;27.00;82.00;;;26.38;35.24;96078.09;10267355;29;2403;-83
2021/07/21 13:56:02;;;;;;;;;;;27.10;82.70;;;26.38;34.26;96078.09;10255034;28;1998;-83
2021/07/21 14:01:05;;;;;;;;;;;27.30;80.50;;;26.21;34.62;96072.28;10269332;29;2291;-83
2021/07/21 14:06:08;;;;;;;;;;;27.30;80.80;;;26.49;34.50;96075.56;10270020;28;3115;-82
2021/07/21 14:11:11;;;;;;;;;;;27.40;81.20;;;25.95;35.86;96068.28;10262428;29;2436;-85
2021/07/21 14:16:14;;;;;;;;;;;26.90;81.70;;;26.07;36.07;96076.38;10271283;28;2340;-81
2021/07/21 14:21:18;;;;;;;;;;;26.90;81.80;;;26.38;36.30;96066.28;10274459;28;2116;-84
2021/07/21 14:26:20;;;;;;;;;;;27.10;83.20;;;26.12;35.61;96061.50;10294666;28;2418;-83
2021/07/21 14:31:23;;;;;;;;;;;27.10;81.50;;;26.88;34.19;96061.56;10263725;29;2339;-84
2021/07/21 14:36:41;;;;;;;;;;;27.50;81.10;;;26.73;34.07;96062.53;10260210;28;2244;-84
2021/07/21 14:41:46;;;;;;;;;;;27.60;79.60;;;26.52;34.43;96054.72;10266519;28;2075;-83
2021/07/21 14:46:48;;;;;;;;;;;27.50;79.00;;;26.36;33.65;96055.63;10257253;29;2295;-84
2021/07/21 14:51:52;;;;;;;;;;;27.40;77.80;;;27.08;33.46;96054.00;10265857;28;2359;-82
2021/07/21 14:56:54;;;;;;;;;;;27.60;78.40;;;27.01;33.54;96053.88;10270555;29;2277;-83
2021/07/21 15:01:57;;;;;;;;;;;27.90;77.50;;;27.14;31.93;96045.00;10280000;28;2276;-83
2021/07/21 15:07:01;;;;;;;;;;;27.90;76.20;;;26.91;34.00;96041.50;10262855;28;2003;-82
2021/07/21 15:12:04;;;;;;;;;;;28.00;78.40;;;27.18;33.14;96051.38;10248365;28;2177;-83
2021/07/21 15:17:07;;;;;;;;;;;28.00;77.90;;;27.28;33.73;96052.69;10241115;29;2379;-84
2021/07/21 15:22:13;;;;;;;;;;;28.10;77.90;;;27.49;33.16;96052.16;10264160;28;2164;-84
2021/07/21 15:27:19;;;;;;;;;;;28.30;77.10;;;27.75;32.05;96048.53;10262726;29;2388;-83
2021/07/21 15:32:21;;;;;;;;;;;28.60;75.80;;;27.54;33.86;96054.56;10255637;28;2394;-82
2021/07/21 15:37:24;;;;;;;;;;;28.50;77.00;;;27.09;33.44;96055.56;10259511;29;2410;-81
2021/07/21 15:42:27;;;;;;;;;;;28.10;76.90;;;26.65;35.38;96050.56;10262630;28;2392;-83
2021/07/21 15:47:30;;;;;;;;;;;27.70;77.90;;;26.01;35.75;96049.50;10283158;29;2304;-83
2021/07/21 15:52:32;;;;;;;;;;;27.40;77.70;;;26.09;36.83;96054.78;10270403;28;2447;-81
2021/07/21 15:57:35;;;;;;;;;;;27.10;79.40;;;26.19;36.06;96055.31;10262025;29;2292;-84
2021/07/21 16:02:39;;;;;;;;;;;27.00;79.70;;;25.90;36.70;96057.59;10259109;28;2442;-83
2021/07/21 16:07:42;;;;;;;;;;;26.90;78.70;;;25.61;37.10;96050.69;10272694;28;3095;-82
2021/07/21 16:12:45;;;;;;;;;;;26.60;79.60;;;25.46;37.62;96048.84;10273770;28;1916;-82
2021/07/21 16:17:47;;;;;;;;;;;26.50;80.10;;;25.81;36.42;96038.53;10297339;28;2204;-82
2021/07/21 16:22:50;;;;;;;;;;;26.50;79.90;;;25.28;37.79;96049.28;10277480;28;2276;-80
2021/07/21 16:27:54;;;;;;;;;;;26.50;79.90;;;25.20;37.54;96042.03;10259957;29;2325;-84
2021/07/21 16:32:57;;;;;;;;;;;26.30;80.30;;;24.88;39.13;96055.06;10243397;28;2311;-83
2021/07/21 16:37:59;;;;;;;;;;;26.00;81.60;;;24.86;39.80;96062.06;10257807;29;2732;-82
2021/07/21 16:43:02;;;;;;;;;;;25.80;82.10;;;24.61;39.25;96053.25;10245774;28;2445;-82
2021/07/21 16:48:05;;;;;;;;;;;25.70;81.40;;;24.36;39.11;96058.94;10252691;29;2105;-84
2021/07/21 16:53:08;;;;;;;;;;;25.40;81.70;;;24.40;40.24;96061.78;10265122;28;2405;-81
2021/07/21 16:58:10;;;;;;;;;;;25.30;82.80;;;24.25;40.10;96055.13;10268270;28;2344;-84
2021/07/21 17:03:13;;;;;;;;;;;25.20;82.80;;;24.11;40.19;96055.56;10253320;28;3130;-84
2021/07/21 17:08:17;;;;;;;;;;;25.10;82.70;;;24.00;40.06;96057.22;10264579;29;2279;-83
2021/07/21 17:13:19;;;;;;;;;;;24.90;83.00;;;23.90;40.00;96061.28;10258291;28;2374;-83
2021/07/21 17:18:22;;;;;;;;;;;24.80;82.80;;;23.89;40.53;96061.66;10266028;28;2296;-84
2021/07/21 17:23:25;;;;;;;;;;;24.80;83.30;;;23.83;40.49;96063.06;10274402;28;2228;-82
2021/07/21 17:28:28;;;;;;;;;;;24.70;83.40;;;23.84;40.90;96076.41;10270920;28;2399;-84
2021/07/21 17:33:31;;;;;;;;;;;24.70;83.90;;;23.63;40.51;96073.91;10261176;28;2007;-84
2021/07/21 17:38:33;;;;;;;;;;;24.50;83.40;;;23.53;41.27;96071.63;10270977;28;2287;-84
2021/07/21 17:43:36;;;;;;;;;;;24.40;84.00;;;23.32;40.80;96076.50;10294763;28;2161;-83
2021/07/21 17:48:39;;;;;;;;;;;24.30;83.40;;;23.37;41.11;96081.75;10303019;28;1784;-82
2021/07/21 17:53:42;;;;;;;;;;;24.20;83.90;;;23.27;41.41;96074.00;10266662;28;1274;-83
2021/07/21 17:58:44;;;;;;;;;;;24.10;83.90;;;23.13;41.08;96080.66;10263218;28;2307;-83
2021/07/21 18:03:47;;;;;;;;;;;24.00;83.80;;;23.04;42.07;96082.75;10249308;28;3131;-83
2021/07/21 18:08:50;;;;;;;;;;;24.00;84.80;;;22.95;42.08;96093.03;10251572;28;2305;-81
2021/07/21 18:13:53;;;;;;;;;;;23.90;85.00;;;22.81;42.48;96085.16;10261016;28;2325;-84
2021/07/21 18:18:56;;;;;;;;;;;23.80;85.00;;;22.66;42.69;96089.41;10276620;28;2663;-83
2021/07/21 18:23:58;;;;;;;;;;;23.70;85.30;;;22.49;43.29;96095.09;10262746;28;2324;-84
2021/07/21 18:29:01;;;;;;;;;;;23.50;85.70;;;22.43;43.11;96096.47;10269532;28;2404;-82
2021/07/21 18:34:04;;;;;;;;;;;23.40;85.50;;;22.31;43.62;96105.47;10261179;28;2494;-83
2021/07/21 18:39:06;;;;;;;;;;;23.30;86.20;;;22.13;44.10;96099.41;10276880;28;2254;-82
2021/07/21 18:44:09;;;;;;;;;;;23.10;86.70;;;21.98;44.79;96102.78;10263926;28;2001;-84
2021/07/21 18:49:12;;;;;;;;;;;23.00;87.20;;;21.76;45.00;96112.19;10272560;29;2261;-82
2021/07/21 18:54:15;;;;;;;;;;;22.90;87.50;;;21.65;45.20;96111.00;10270662;28;2359;-84
2021/07/21 18:59:17;;;;;;;;;;;22.70;87.80;;;21.41;46.29;96108.16;10279131;28;2685;-83
2021/07/21 19:04:20;;;;;;;;;;;22.60;88.30;;;21.30;46.37;96111.28;10262684;28;3059;-84
2021/07/21 19:09:23;;;;;;;;;;;22.40;88.60;;;21.09;47.10;96115.13;10253445;28;2526;-84
2021/07/21 19:14:25;;;;;;;;;;;22.20;89.20;;;20.87;47.57;96125.25;10258753;28;2716;-84
2021/07/21 19:19:28;;;;;;;;;;;22.10;89.80;;;20.83;47.38;96120.78;10269119;28;2685;-83
2021/07/21 19:24:31;;;;;;;;;;;21.90;89.90;;;20.82;47.04;96130.09;10253781;28;2304;-84
2021/07/21 19:29:34;;;;;;;;;;;21.90;89.80;;;20.65;48.25;96128.25;10259191;28;2831;-83
2021/07/21 19:34:37;;;;;;;;;;;21.80;90.40;;;20.36;49.49;96140.75;10261562;28;2811;-83
2021/07/21 19:39:39;;;;;;;;;;;21.60;91.40;;;20.16;50.44;96135.97;10244924;29;2329;-83
2021/07/21 19:44:42;;;;;;;;;;;21.40;92.50;;;20.09;50.60;96146.59;10252240;28;2358;-83
2021/07/21 19:49:46;;;;;;;;;;;21.20;93.10;;;19.88;51.55;96146.47;10253541;29;2208;-83
2021/07/21 19:54:48;;;;;;;;;;;21.10;93.80;;;19.86;51.86;96152.25;10253410;28;1978;-82
2021/07/21 19:59:51;;;;;;;;;;;21.00;94.60;;;19.68;53.52;96151.47;10244516;29;2292;-81
2021/07/21 20:04:54;;;;;;;;;;;20.90;95.80;;;19.81;52.00;96146.97;10255850;28;3163;-83
2021/07/21 20:09:57;;;;;;;;;;;20.80;95.50;;;19.65;52.76;96148.59;10259368;28;1927;-83
2021/07/21 20:14:59;;;;;;;;;;;20.80;95.80;;;19.47;53.68;96141.50;10255469;28;2232;-85
2021/07/21 20:20:03;;;;;;;;;;;20.70;96.30;;;19.31;54.66;96144.72;10259902;28;2274;-85
2021/07/21 20:25:06;;;;;;;;;;;20.50;97.50;;;19.41;53.69;96146.34;10266189;28;2319;-88
2021/07/21 20:30:09;;;;;;;;;;;20.40;97.00;;;19.35;54.44;96142.97;10262657;29;2334;-87
2021/07/21 20:35:12;;;;;;;;;;;20.40;97.80;;;19.14;54.65;96147.44;10235584;28;2269;-86
2021/07/21 20:40:15;;;;;;;;;;;20.30;97.90;;;19.12;54.51;96155.13;10252435;29;1974;-88
2021/07/21 20:45:18;;;;;;;;;;;20.20;98.40;;;19.01;54.88;96154.63;10268323;28;1324;-86
2021/07/21 20:50:22;;;;;;;;;;;20.20;98.70;;;18.96;54.58;96152.06;10266833;28;1604;-88
2021/07/21 20:55:26;;;;;;;;;;;20.10;98.70;;;18.86;56.21;96147.72;10292759;29;1400;-86
2021/07/21 21:00:29;;;;;;;;;;;20.00;99.70;;;18.76;55.66;96148.00;10280461;28;1895;-87
2021/07/21 21:05:36;;;;;;;;;;;19.90;99.50;;;18.76;55.71;96144.47;10278231;28;3233;-87
2021/07/21 21:10:50;;;;;;;;;;;19.80;99.40;;;18.68;56.46;96146.06;10281288;28;1487;-88
2021/07/21 21:15:54;;;;;;;;;;;19.80;99.90;;;18.62;57.53;96147.28;10292682;28;1530;-89
2021/07/21 21:20:58;;;;;;;;;;;19.70;99.90;;;18.48;58.89;96162.94;10282916;28;1891;-88
2021/07/21 21:26:02;;;;;;;;;;;19.60;99.90;;;18.47;58.71;96155.91;10282068;28;1381;-88
2021/07/21 21:31:09;;;;;;;;;;;19.50;99.90;;;18.56;58.10;96154.00;10243387;29;1585;-88
2021/07/21 21:36:13;;;;;;;;;;;19.50;99.90;;;18.38;58.60;96155.84;10259680;28;1370;-89
2021/07/21 21:41:16;;;;;;;;;;;19.40;99.90;;;18.30;57.98;96160.16;10260523;28;1895;-86
2021/07/21 21:46:19;;;;;;;;;;;19.40;99.90;;;18.37;57.59;96163.22;10260275;28;1285;-87
2021/07/21 21:51:24;;;;;;;;;;;19.40;99.90;;;18.24;58.82;96158.66;10279614;28;1687;-88
2021/07/21 21:56:27;;;;;;;;;;;19.30;99.90;;;18.08;59.50;96165.66;10284677;28;1389;-88
2021/07/21 22:01:31;;;;;;;;;;;19.20;99.90;;;18.00;60.30;96163.66;10285713;28;1899;-87
2021/07/21 22:06:38;;;;;;;;;;;19.10;99.90;;;17.93;61.04;96163.31;10280821;28;1343;-88
2021/07/21 22:11:41;;;;;;;;;;;19.00;99.90;;;17.82;61.74;96162.78;10272400;28;1333;-88
2021/07/21 22:16:45;;;;;;;;;;;19.00;99.90;;;17.76;61.95;96156.66;10271651;28;1525;-86
2021/07/21 22:21:48;;;;;;;;;;;18.90;99.90;;;17.71;62.76;96162.22;10295356;28;2081;-87
2021/07/21 22:26:52;;;;;;;;;;;18.80;99.90;;;17.61;63.43;96158.91;10276551;28;2303;-88
2021/07/21 22:31:58;;;;;;;;;;;18.70;99.90;;;17.52;63.63;96158.84;10276967;28;2463;-86
2021/07/21 22:37:04;;;;;;;;;;;18.70;99.90;;;17.39;64.65;96159.72;10273310;28;1778;-87
2021/07/21 22:42:07;;;;;;;;;;;18.50;99.90;;;17.35;65.83;96158.69;10293034;28;2188;-87
2021/07/21 22:47:12;;;;;;;;;;;18.50;99.90;;;17.34;65.95;96157.09;10295929;28;2283;-87
2021/07/21 22:52:16;;;;;;;;;;;18.40;99.90;;;17.26;66.12;96162.16;10261099;28;1982;-87
2021/07/21 22:57:22;;;;;;;;;;;18.40;99.90;;;17.23;66.18;96151.88;10263182;29;2382;-86
2021/07/21 23:02:25;;;;;;;;;;;18.30;99.90;;;17.18;66.50;96146.59;10262186;28;1684;-87
2021/07/21 23:07:31;;;;;;;;;;;18.30;99.90;;;17.14;66.75;96147.50;10277793;28;1733;-86
2021/07/21 23:12:34;;;;;;;;;;;18.20;99.90;;;17.07;67.62;96138.97;10272072;28;2373;-87
2021/07/21 23:17:38;;;;;;;;;;;18.20;99.90;;;17.05;67.26;96143.88;10272335;28;2460;-87
2021/07/21 23:22:41;;;;;;;;;;;18.20;99.90;;;16.94;67.63;96138.69;10251020;28;1349;-88